sensor_id;sensor_type;location;lat;lon;timestamp;P1;durP1;ratioP1;P2;durP2;ratioP2
2175;SDS011;1094;49.902;10.876;2022-08-18T00:00:24;10.77;;;7.40;;
2175;SDS011;1094;49.902;10.876;2022-08-18T00:02:50;14.83;;;6.90;;
2175;SDS011;1094;49.902;10.876;2022-08-18T00:05:16;8.57;;;7.63;;
2175;SDS011;1094;49.902;10.876;2022-08-18T00:07:42;14.83;;;7.47;;
2175;SDS011;1094;49.902;10.876;2022-08-18T00:10:08;12.83;;;8.30;;
2175;SDS011;1094;49.902;10.876;2022-08-18T00:12:38;12.80;;;6.80;;
2175;SDS011;1094;49.902;10.876;2022-08-18T00:15:05;12.30;;;6.87;;
2175;SDS011;1094;49.902;10.876;2022-08-18T00:17:31;8.73;;;7.00;;
2175;SDS011;1094;49.902;10.876;2022-08-18T00:19:58;10.90;;;7.10;;
2175;SDS011;1094;49.902;10.876;2022-08-18T00:22:24;9.57;;;7.30;;
2175;SDS011;1094;49.902;10.876;2022-08-18T00:24:51;13.10;;;7.47;;
2175;SDS011;1094;49.902;10.876;2022-08-18T00:27:21;13.77;;;8.00;;
2175;SDS011;1094;49.902;10.876;2022-08-18T00:29:48;11.53;;;7.57;;
2175;SDS011;1094;49.902;10.876;2022-08-18T00:32:15;10.90;;;7.10;;
2175;SDS011;1094;49.902;10.876;2022-08-18T00:34:42;14.33;;;7.60;;
2175;SDS011;1094;49.902;10.876;2022-08-18T00:37:08;8.20;;;7.50;;
2175;SDS011;1094;49.902;10.876;2022-08-18T00:39:34;9.80;;;7.17;;
2175;SDS011;1094;49.902;10.876;2022-08-18T00:42:13;10.60;;;7.07;;
2175;SDS011;1094;49.902;10.876;2022-08-18T00:44:39;8.20;;;6.77;;
2175;SDS011;1094;49.902;10.876;2022-08-18T00:47:05;10.37;;;7.13;;
2175;SDS011;1094;49.902;10.876;2022-08-18T00:49:31;9.30;;;6.23;;
2175;SDS011;1094;49.902;10.876;2022-08-18T00:51:57;11.17;;;7.30;;
2175;SDS011;1094;49.902;10.876;2022-08-18T00:54:25;15.47;;;6.97;;
2175;SDS011;1094;49.902;10.876;2022-08-18T00:56:54;7.63;;;6.73;;
2175;SDS011;1094;49.902;10.876;2022-08-18T00:59:37;10.93;;;6.83;;
2175;SDS011;1094;49.902;10.876;2022-08-18T01:02:07;12.27;;;6.97;;
2175;SDS011;1094;49.902;10.876;2022-08-18T01:05:18;11.30;;;7.40;;
2175;SDS011;1094;49.902;10.876;2022-08-18T01:07:35;8.70;;;7.60;;
2175;SDS011;1094;49.902;10.876;2022-08-18T01:10:03;12.83;;;6.90;;
2175;SDS011;1094;49.902;10.876;2022-08-18T01:12:30;9.70;;;6.90;;
2175;SDS011;1094;49.902;10.876;2022-08-18T01:14:56;11.27;;;7.13;;
2175;SDS011;1094;49.902;10.876;2022-08-18T01:17:22;12.47;;;7.87;;
2175;SDS011;1094;49.902;10.876;2022-08-18T01:20:09;11.80;;;6.50;;
2175;SDS011;1094;49.902;10.876;2022-08-18T01:23:00;13.33;;;6.13;;
2175;SDS011;1094;49.902;10.876;2022-08-18T01:25:28;12.50;;;6.23;;
2175;SDS011;1094;49.902;10.876;2022-08-18T01:28:14;17.93;;;6.20;;
2175;SDS011;1094;49.902;10.876;2022-08-18T01:30:49;11.90;;;6.13;;
2175;SDS011;1094;49.902;10.876;2022-08-18T01:33:16;9.03;;;6.13;;
2175;SDS011;1094;49.902;10.876;2022-08-18T01:35:44;7.00;;;5.90;;
2175;SDS011;1094;49.902;10.876;2022-08-18T01:38:13;7.90;;;5.83;;
2175;SDS011;1094;49.902;10.876;2022-08-18T01:40:39;6.43;;;5.47;;
2175;SDS011;1094;49.902;10.876;2022-08-18T01:43:05;5.60;;;5.07;;
2175;SDS011;1094;49.902;10.876;2022-08-18T01:45:31;7.50;;;5.00;;
2175;SDS011;1094;49.902;10.876;2022-08-18T01:47:58;6.43;;;5.40;;
2175;SDS011;1094;49.902;10.876;2022-08-18T01:50:24;5.53;;;5.03;;
2175;SDS011;1094;49.902;10.876;2022-08-18T01:52:50;7.70;;;4.70;;
2175;SDS011;1094;49.902;10.876;2022-08-18T01:55:17;6.67;;;5.10;;
2175;SDS011;1094;49.902;10.876;2022-08-18T01:57:43;11.27;;;5.70;;
2175;SDS011;1094;49.902;10.876;2022-08-18T02:00:10;5.73;;;5.17;;
2175;SDS011;1094;49.902;10.876;2022-08-18T02:02:37;8.43;;;5.70;;
2175;SDS011;1094;49.902;10.876;2022-08-18T02:05:04;7.43;;;5.40;;
2175;SDS011;1094;49.902;10.876;2022-08-18T02:07:30;6.00;;;5.00;;
2175;SDS011;1094;49.902;10.876;2022-08-18T02:09:56;6.83;;;5.20;;
2175;SDS011;1094;49.902;10.876;2022-08-18T02:12:22;6.93;;;6.20;;
2175;SDS011;1094;49.902;10.876;2022-08-18T02:14:48;5.63;;;5.07;;
2175;SDS011;1094;49.902;10.876;2022-08-18T02:17:15;6.23;;;5.63;;
2175;SDS011;1094;49.902;10.876;2022-08-18T02:19:43;9.43;;;5.23;;
2175;SDS011;1094;49.902;10.876;2022-08-18T02:22:10;8.40;;;5.33;;
2175;SDS011;1094;49.902;10.876;2022-08-18T02:24:36;8.40;;;5.80;;
2175;SDS011;1094;49.902;10.876;2022-08-18T02:27:02;8.57;;;5.73;;
2175;SDS011;1094;49.902;10.876;2022-08-18T02:29:28;7.23;;;5.30;;
2175;SDS011;1094;49.902;10.876;2022-08-18T02:31:55;7.33;;;5.43;;
2175;SDS011;1094;49.902;10.876;2022-08-18T02:34:21;9.23;;;5.47;;
2175;SDS011;1094;49.902;10.876;2022-08-18T02:36:47;6.83;;;5.70;;
2175;SDS011;1094;49.902;10.876;2022-08-18T02:39:13;5.57;;;5.07;;
2175;SDS011;1094;49.902;10.876;2022-08-18T02:41:39;8.37;;;5.60;;
2175;SDS011;1094;49.902;10.876;2022-08-18T02:44:06;6.90;;;5.60;;
2175;SDS011;1094;49.902;10.876;2022-08-18T02:46:33;6.77;;;6.07;;
2175;SDS011;1094;49.902;10.876;2022-08-18T02:48:59;6.93;;;6.27;;
2175;SDS011;1094;49.902;10.876;2022-08-18T02:51:25;14.67;;;7.13;;
2175;SDS011;1094;49.902;10.876;2022-08-18T02:53:51;7.50;;;6.80;;
2175;SDS011;1094;49.902;10.876;2022-08-18T02:56:18;7.47;;;6.27;;
2175;SDS011;1094;49.902;10.876;2022-08-18T02:58:49;8.47;;;6.33;;
2175;SDS011;1094;49.902;10.876;2022-08-18T03:01:17;6.57;;;5.87;;
2175;SDS011;1094;49.902;10.876;2022-08-18T03:03:43;6.80;;;6.13;;
2175;SDS011;1094;49.902;10.876;2022-08-18T03:06:09;6.47;;;5.77;;
2175;SDS011;1094;49.902;10.876;2022-08-18T03:08:35;7.53;;;6.67;;
2175;SDS011;1094;49.902;10.876;2022-08-18T03:11:01;7.40;;;5.97;;
2175;SDS011;1094;49.902;10.876;2022-08-18T03:13:27;9.57;;;6.70;;
2175;SDS011;1094;49.902;10.876;2022-08-18T03:15:54;6.77;;;6.07;;
2175;SDS011;1094;49.902;10.876;2022-08-18T03:18:20;6.93;;;5.70;;
2175;SDS011;1094;49.902;10.876;2022-08-18T03:20:47;7.97;;;7.17;;
2175;SDS011;1094;49.902;10.876;2022-08-18T03:23:13;9.03;;;6.50;;
2175;SDS011;1094;49.902;10.876;2022-08-18T03:25:45;8.03;;;6.83;;
2175;SDS011;1094;49.902;10.876;2022-08-18T03:28:12;7.67;;;6.23;;
2175;SDS011;1094;49.902;10.876;2022-08-18T03:30:38;7.30;;;6.60;;
2175;SDS011;1094;49.902;10.876;2022-08-18T03:33:04;8.23;;;6.17;;
2175;SDS011;1094;49.902;10.876;2022-08-18T03:35:30;6.80;;;6.13;;
2175;SDS011;1094;49.902;10.876;2022-08-18T03:37:58;7.47;;;5.50;;
2175;SDS011;1094;49.902;10.876;2022-08-18T03:40:24;10.73;;;6.80;;
2175;SDS011;1094;49.902;10.876;2022-08-18T03:42:50;7.13;;;6.43;;
2175;SDS011;1094;49.902;10.876;2022-08-18T03:45:16;8.53;;;6.87;;
2175;SDS011;1094;49.902;10.876;2022-08-18T03:47:42;7.00;;;6.30;;
2175;SDS011;1094;49.902;10.876;2022-08-18T03:50:09;7.53;;;6.77;;
2175;SDS011;1094;49.902;10.876;2022-08-18T03:52:35;7.57;;;6.77;;
2175;SDS011;1094;49.902;10.876;2022-08-18T03:55:02;6.67;;;6.07;;
2175;SDS011;1094;49.902;10.876;2022-08-18T03:57:28;8.40;;;7.60;;
2175;SDS011;1094;49.902;10.876;2022-08-18T03:59:57;9.70;;;6.83;;
2175;SDS011;1094;49.902;10.876;2022-08-18T04:02:22;7.13;;;6.43;;
2175;SDS011;1094;49.902;10.876;2022-08-18T04:04:48;10.00;;;7.00;;
2175;SDS011;1094;49.902;10.876;2022-08-18T04:07:15;9.67;;;6.83;;
2175;SDS011;1094;49.902;10.876;2022-08-18T04:09:42;8.00;;;6.97;;
2175;SDS011;1094;49.902;10.876;2022-08-18T04:12:09;10.83;;;8.23;;
2175;SDS011;1094;49.902;10.876;2022-08-18T04:14:36;12.30;;;7.80;;
2175;SDS011;1094;49.902;10.876;2022-08-18T04:17:03;11.93;;;7.50;;
2175;SDS011;1094;49.902;10.876;2022-08-18T04:19:29;10.87;;;7.53;;
2175;SDS011;1094;49.902;10.876;2022-08-18T04:21:58;8.13;;;7.23;;
2175;SDS011;1094;49.902;10.876;2022-08-18T04:24:25;9.77;;;8.10;;
2175;SDS011;1094;49.902;10.876;2022-08-18T04:26:51;10.90;;;7.90;;
2175;SDS011;1094;49.902;10.876;2022-08-18T04:29:17;9.67;;;8.20;;
2175;SDS011;1094;49.902;10.876;2022-08-18T04:31:45;11.60;;;8.57;;
2175;SDS011;1094;49.902;10.876;2022-08-18T04:34:11;10.00;;;8.93;;
2175;SDS011;1094;49.902;10.876;2022-08-18T04:36:38;14.07;;;9.60;;
2175;SDS011;1094;49.902;10.876;2022-08-18T04:39:05;10.17;;;8.43;;
2175;SDS011;1094;49.902;10.876;2022-08-18T04:41:31;12.97;;;9.57;;
2175;SDS011;1094;49.902;10.876;2022-08-18T04:43:59;10.40;;;9.40;;
2175;SDS011;1094;49.902;10.876;2022-08-18T04:46:25;14.80;;;9.60;;
2175;SDS011;1094;49.902;10.876;2022-08-18T04:48:52;10.00;;;9.00;;
2175;SDS011;1094;49.902;10.876;2022-08-18T04:51:23;10.60;;;9.50;;
2175;SDS011;1094;49.902;10.876;2022-08-18T04:53:49;11.33;;;9.80;;
2175;SDS011;1094;49.902;10.876;2022-08-18T04:56:19;10.80;;;8.97;;
2175;SDS011;1094;49.902;10.876;2022-08-18T04:58:49;11.40;;;8.80;;
2175;SDS011;1094;49.902;10.876;2022-08-18T05:01:16;11.03;;;9.30;;
2175;SDS011;1094;49.902;10.876;2022-08-18T05:03:42;10.37;;;8.50;;
2175;SDS011;1094;49.902;10.876;2022-08-18T05:06:09;11.30;;;9.13;;
2175;SDS011;1094;49.902;10.876;2022-08-18T05:08:35;10.93;;;9.30;;
2175;SDS011;1094;49.902;10.876;2022-08-18T05:11:02;10.77;;;8.93;;
2175;SDS011;1094;49.902;10.876;2022-08-18T05:13:28;9.90;;;8.90;;
2175;SDS011;1094;49.902;10.876;2022-08-18T05:15:54;10.80;;;9.70;;
2175;SDS011;1094;49.902;10.876;2022-08-18T05:18:21;9.47;;;8.53;;
2175;SDS011;1094;49.902;10.876;2022-08-18T05:20:49;10.67;;;9.57;;
2175;SDS011;1094;49.902;10.876;2022-08-18T05:23:15;10.50;;;9.40;;
2175;SDS011;1094;49.902;10.876;2022-08-18T05:25:41;21.63;;;10.37;;
2175;SDS011;1094;49.902;10.876;2022-08-18T05:28:07;17.50;;;11.90;;
2175;SDS011;1094;49.902;10.876;2022-08-18T05:30:33;15.03;;;13.03;;
2175;SDS011;1094;49.902;10.876;2022-08-18T05:33:01;15.17;;;10.67;;
2175;SDS011;1094;49.902;10.876;2022-08-18T05:35:32;14.07;;;11.10;;
2175;SDS011;1094;49.902;10.876;2022-08-18T05:41:02;15.40;;;11.03;;
2175;SDS011;1094;49.902;10.876;2022-08-18T05:43:28;13.07;;;11.83;;
2175;SDS011;1094;49.902;10.876;2022-08-18T05:45:55;12.93;;;11.60;;
2175;SDS011;1094;49.902;10.876;2022-08-18T05:48:21;16.37;;;11.00;;
2175;SDS011;1094;49.902;10.876;2022-08-18T05:50:47;18.83;;;12.00;;
2175;SDS011;1094;49.902;10.876;2022-08-18T05:53:14;19.27;;;12.80;;
2175;SDS011;1094;49.902;10.876;2022-08-18T05:55:57;11.57;;;10.37;;
2175;SDS011;1094;49.902;10.876;2022-08-18T05:58:44;13.30;;;12.00;;
2175;SDS011;1094;49.902;10.876;2022-08-18T06:01:15;12.93;;;11.67;;
2175;SDS011;1094;49.902;10.876;2022-08-18T06:06:09;15.33;;;12.23;;
2175;SDS011;1094;49.902;10.876;2022-08-18T06:08:43;15.30;;;12.60;;
2175;SDS011;1094;49.902;10.876;2022-08-18T06:11:11;16.87;;;12.07;;
2175;SDS011;1094;49.902;10.876;2022-08-18T06:13:39;17.27;;;12.33;;
2175;SDS011;1094;49.902;10.876;2022-08-18T06:16:13;18.67;;;13.80;;
2175;SDS011;1094;49.902;10.876;2022-08-18T06:21:21;14.17;;;12.70;;
2175;SDS011;1094;49.902;10.876;2022-08-18T06:24:24;14.77;;;12.80;;
2175;SDS011;1094;49.902;10.876;2022-08-18T06:27:09;14.13;;;12.70;;
2175;SDS011;1094;49.902;10.876;2022-08-18T06:32:08;19.77;;;14.60;;
2175;SDS011;1094;49.902;10.876;2022-08-18T06:34:42;19.60;;;13.83;;
2175;SDS011;1094;49.902;10.876;2022-08-18T06:37:13;15.00;;;12.00;;
2175;SDS011;1094;49.902;10.876;2022-08-18T06:39:45;17.00;;;13.00;;
2175;SDS011;1094;49.902;10.876;2022-08-18T06:42:11;13.90;;;12.50;;
2175;SDS011;1094;49.902;10.876;2022-08-18T06:44:44;14.43;;;13.03;;
2175;SDS011;1094;49.902;10.876;2022-08-18T06:47:16;16.20;;;12.73;;
2175;SDS011;1094;49.902;10.876;2022-08-18T06:52:30;13.60;;;11.67;;
2175;SDS011;1094;49.902;10.876;2022-08-18T06:54:59;15.77;;;11.63;;
2175;SDS011;1094;49.902;10.876;2022-08-18T06:57:27;14.37;;;11.60;;
2175;SDS011;1094;49.902;10.876;2022-08-18T06:59:55;11.97;;;10.77;;
2175;SDS011;1094;49.902;10.876;2022-08-18T07:02:26;11.40;;;10.20;;
2175;SDS011;1094;49.902;10.876;2022-08-18T07:04:58;11.47;;;9.77;;
2175;SDS011;1094;49.902;10.876;2022-08-18T07:07:29;13.53;;;9.87;;
2175;SDS011;1094;49.902;10.876;2022-08-18T07:09:55;11.63;;;10.30;;
2175;SDS011;1094;49.902;10.876;2022-08-18T07:12:23;12.03;;;9.40;;
2175;SDS011;1094;49.902;10.876;2022-08-18T07:14:51;11.07;;;9.97;;
2175;SDS011;1094;49.902;10.876;2022-08-18T07:17:19;10.90;;;9.80;;
2175;SDS011;1094;49.902;10.876;2022-08-18T07:20:03;10.87;;;9.87;;
2175;SDS011;1094;49.902;10.876;2022-08-18T07:22:30;12.07;;;10.93;;
2175;SDS011;1094;49.902;10.876;2022-08-18T07:24:57;14.93;;;10.17;;
2175;SDS011;1094;49.902;10.876;2022-08-18T07:27:45;11.77;;;9.50;;
2175;SDS011;1094;49.902;10.876;2022-08-18T07:30:24;10.70;;;9.07;;
2175;SDS011;1094;49.902;10.876;2022-08-18T07:32:52;10.13;;;7.20;;
2175;SDS011;1094;49.902;10.876;2022-08-18T07:35:21;7.83;;;7.03;;
2175;SDS011;1094;49.902;10.876;2022-08-18T07:37:54;9.33;;;7.80;;
2175;SDS011;1094;49.902;10.876;2022-08-18T07:40:23;9.57;;;8.73;;
2175;SDS011;1094;49.902;10.876;2022-08-18T07:42:52;9.63;;;7.70;;
2175;SDS011;1094;49.902;10.876;2022-08-18T07:50:26;8.60;;;7.80;;
2175;SDS011;1094;49.902;10.876;2022-08-18T07:53:08;7.87;;;7.03;;
2175;SDS011;1094;49.902;10.876;2022-08-18T07:55:37;7.33;;;6.30;;
2175;SDS011;1094;49.902;10.876;2022-08-18T07:58:14;13.90;;;6.90;;
2175;SDS011;1094;49.902;10.876;2022-08-18T08:08:28;6.28;;;5.78;;
2175;SDS011;1094;49.902;10.876;2022-08-18T08:11:07;10.73;;;5.80;;
2175;SDS011;1094;49.902;10.876;2022-08-18T08:16:21;7.37;;;6.60;;
2175;SDS011;1094;49.902;10.876;2022-08-18T08:18:53;8.50;;;6.40;;
2175;SDS011;1094;49.902;10.876;2022-08-18T08:21:23;8.07;;;6.87;;
2175;SDS011;1094;49.902;10.876;2022-08-18T08:23:54;7.30;;;6.60;;
2175;SDS011;1094;49.902;10.876;2022-08-18T08:26:46;7.50;;;6.77;;
2175;SDS011;1094;49.902;10.876;2022-08-18T08:29:19;7.87;;;7.17;;
2175;SDS011;1094;49.902;10.876;2022-08-18T08:31:49;7.40;;;6.77;;
2175;SDS011;1094;49.902;10.876;2022-08-18T08:34:19;6.67;;;6.07;;
2175;SDS011;1094;49.902;10.876;2022-08-18T08:36:49;7.03;;;6.20;;
2175;SDS011;1094;49.902;10.876;2022-08-18T08:39:23;8.20;;;6.20;;
2175;SDS011;1094;49.902;10.876;2022-08-18T08:41:54;6.40;;;5.83;;
2175;SDS011;1094;49.902;10.876;2022-08-18T08:44:24;6.20;;;5.60;;
2175;SDS011;1094;49.902;10.876;2022-08-18T08:46:52;8.83;;;6.43;;
2175;SDS011;1094;49.902;10.876;2022-08-18T08:49:27;6.50;;;5.97;;
2175;SDS011;1094;49.902;10.876;2022-08-18T08:51:57;7.63;;;6.50;;
2175;SDS011;1094;49.902;10.876;2022-08-18T08:54:37;8.13;;;6.93;;
2175;SDS011;1094;49.902;10.876;2022-08-18T08:57:05;7.03;;;6.33;;
2175;SDS011;1094;49.902;10.876;2022-08-18T08:59:32;13.43;;;7.60;;
2175;SDS011;1094;49.902;10.876;2022-08-18T09:02:20;6.80;;;6.20;;
2175;SDS011;1094;49.902;10.876;2022-08-18T09:08:03;7.47;;;6.70;;
2175;SDS011;1094;49.902;10.876;2022-08-18T09:18:35;8.43;;;7.30;;
2175;SDS011;1094;49.902;10.876;2022-08-18T09:23:50;9.60;;;6.83;;
2175;SDS011;1094;49.902;10.876;2022-08-18T09:26:26;7.20;;;6.50;;
2175;SDS011;1094;49.902;10.876;2022-08-18T09:31:47;7.00;;;6.50;;
2175;SDS011;1094;49.902;10.876;2022-08-18T09:34:25;7.33;;;6.63;;
2175;SDS011;1094;49.902;10.876;2022-08-18T09:37:02;6.63;;;6.03;;
2175;SDS011;1094;49.902;10.876;2022-08-18T09:39:33;7.63;;;6.00;;
2175;SDS011;1094;49.902;10.876;2022-08-18T09:42:26;6.73;;;5.20;;
2175;SDS011;1094;49.902;10.876;2022-08-18T09:49:49;5.47;;;4.32;;
2175;SDS011;1094;49.902;10.876;2022-08-18T09:54:58;4.97;;;4.28;;
2175;SDS011;1094;49.902;10.876;2022-08-18T09:57:27;6.20;;;4.35;;
2175;SDS011;1094;49.902;10.876;2022-08-18T09:59:58;6.18;;;4.72;;
2175;SDS011;1094;49.902;10.876;2022-08-18T10:15:45;4.63;;;3.50;;
2175;SDS011;1094;49.902;10.876;2022-08-18T10:18:22;4.85;;;4.20;;
2175;SDS011;1094;49.902;10.876;2022-08-18T10:21:10;6.78;;;4.15;;
2175;SDS011;1094;49.902;10.876;2022-08-18T10:23:46;5.07;;;3.67;;
2175;SDS011;1094;49.902;10.876;2022-08-18T10:31:27;4.15;;;3.75;;
2175;SDS011;1094;49.902;10.876;2022-08-18T10:34:07;5.63;;;3.88;;
2175;SDS011;1094;49.902;10.876;2022-08-18T10:36:38;3.88;;;3.58;;
2175;SDS011;1094;49.902;10.876;2022-08-18T10:39:07;3.47;;;3.28;;
2175;SDS011;1094;49.902;10.876;2022-08-18T10:41:34;4.68;;;3.42;;
2175;SDS011;1094;49.902;10.876;2022-08-18T10:44:02;4.15;;;3.83;;
2175;SDS011;1094;49.902;10.876;2022-08-18T10:46:31;4.63;;;3.75;;
2175;SDS011;1094;49.902;10.876;2022-08-18T10:49:06;4.15;;;3.63;;
2175;SDS011;1094;49.902;10.876;2022-08-18T10:54:11;4.38;;;3.90;;
2175;SDS011;1094;49.902;10.876;2022-08-18T10:59:15;4.03;;;3.72;;
2175;SDS011;1094;49.902;10.876;2022-08-18T11:01:45;5.13;;;4.20;;
2175;SDS011;1094;49.902;10.876;2022-08-18T11:07:04;4.93;;;4.63;;
2175;SDS011;1094;49.902;10.876;2022-08-18T11:09:31;5.30;;;4.80;;
2175;SDS011;1094;49.902;10.876;2022-08-18T11:11:58;4.82;;;4.43;;
2175;SDS011;1094;49.902;10.876;2022-08-18T11:17:06;7.97;;;5.05;;
2175;SDS011;1094;49.902;10.876;2022-08-18T11:19:35;5.22;;;4.75;;
2175;SDS011;1094;49.902;10.876;2022-08-18T11:22:02;5.32;;;4.82;;
2175;SDS011;1094;49.902;10.876;2022-08-18T11:24:29;4.85;;;4.43;;
2175;SDS011;1094;49.902;10.876;2022-08-18T11:27:03;14.85;;;4.40;;
2175;SDS011;1094;49.902;10.876;2022-08-18T11:29:34;5.05;;;4.57;;
2175;SDS011;1094;49.902;10.876;2022-08-18T11:32:07;5.22;;;4.25;;
2175;SDS011;1094;49.902;10.876;2022-08-18T11:34:38;4.18;;;3.83;;
2175;SDS011;1094;49.902;10.876;2022-08-18T11:37:06;4.88;;;4.13;;
2175;SDS011;1094;49.902;10.876;2022-08-18T11:39:40;5.00;;;4.50;;
2175;SDS011;1094;49.902;10.876;2022-08-18T11:42:07;4.70;;;4.25;;
2175;SDS011;1094;49.902;10.876;2022-08-18T11:44:33;5.38;;;4.00;;
2175;SDS011;1094;49.902;10.876;2022-08-18T11:47:08;4.68;;;4.13;;
2175;SDS011;1094;49.902;10.876;2022-08-18T11:49:35;5.53;;;4.45;;
2175;SDS011;1094;49.902;10.876;2022-08-18T11:52:02;5.53;;;4.18;;
2175;SDS011;1094;49.902;10.876;2022-08-18T11:54:42;4.80;;;3.90;;
2175;SDS011;1094;49.902;10.876;2022-08-18T11:57:28;7.55;;;4.75;;
2175;SDS011;1094;49.902;10.876;2022-08-18T11:59:55;4.93;;;4.50;;
2175;SDS011;1094;49.902;10.876;2022-08-18T12:02:22;5.03;;;4.63;;
2175;SDS011;1094;49.902;10.876;2022-08-18T12:04:56;6.03;;;5.50;;
2175;SDS011;1094;49.902;10.876;2022-08-18T12:07:33;5.45;;;4.95;;
2175;SDS011;1094;49.902;10.876;2022-08-18T12:12:45;5.50;;;5.00;;
2175;SDS011;1094;49.902;10.876;2022-08-18T12:17:38;5.93;;;5.40;;
2175;SDS011;1094;49.902;10.876;2022-08-18T12:20:04;5.55;;;5.15;;
2175;SDS011;1094;49.902;10.876;2022-08-18T12:22:33;7.82;;;5.45;;
2175;SDS011;1094;49.902;10.876;2022-08-18T12:24:59;6.00;;;5.50;;
2175;SDS011;1094;49.902;10.876;2022-08-18T12:27:26;5.90;;;5.40;;
2175;SDS011;1094;49.902;10.876;2022-08-18T12:29:53;6.80;;;6.20;;
2175;SDS011;1094;49.902;10.876;2022-08-18T12:32:20;7.07;;;6.37;;
2175;SDS011;1094;49.902;10.876;2022-08-18T12:34:47;8.10;;;7.30;;
2175;SDS011;1094;49.902;10.876;2022-08-18T12:37:20;8.10;;;7.30;;
2175;SDS011;1094;49.902;10.876;2022-08-18T12:39:46;8.97;;;7.43;;
2175;SDS011;1094;49.902;10.876;2022-08-18T12:42:13;8.23;;;7.53;;
2175;SDS011;1094;49.902;10.876;2022-08-18T12:44:39;7.37;;;6.77;;
2175;SDS011;1094;49.902;10.876;2022-08-18T12:47:12;8.70;;;6.83;;
2175;SDS011;1094;49.902;10.876;2022-08-18T12:49:39;8.10;;;6.47;;
2175;SDS011;1094;49.902;10.876;2022-08-18T12:52:05;10.37;;;7.97;;
2175;SDS011;1094;49.902;10.876;2022-08-18T12:54:31;8.10;;;6.90;;
2175;SDS011;1094;49.902;10.876;2022-08-18T12:56:58;8.10;;;7.50;;
2175;SDS011;1094;49.902;10.876;2022-08-18T12:59:24;8.90;;;8.10;;
2175;SDS011;1094;49.902;10.876;2022-08-18T13:01:51;7.70;;;7.10;;
2175;SDS011;1094;49.902;10.876;2022-08-18T13:04:17;7.73;;;6.97;;
2175;SDS011;1094;49.902;10.876;2022-08-18T13:06:53;7.93;;;7.23;;
2175;SDS011;1094;49.902;10.876;2022-08-18T13:09:20;7.50;;;6.80;;
2175;SDS011;1094;49.902;10.876;2022-08-18T13:11:46;7.80;;;7.20;;
2175;SDS011;1094;49.902;10.876;2022-08-18T13:14:12;8.90;;;6.53;;
2175;SDS011;1094;49.902;10.876;2022-08-18T13:16:40;9.53;;;7.47;;
2175;SDS011;1094;49.902;10.876;2022-08-18T13:19:07;7.77;;;7.10;;
2175;SDS011;1094;49.902;10.876;2022-08-18T13:21:33;8.63;;;7.60;;
2175;SDS011;1094;49.902;10.876;2022-08-18T13:24:00;8.07;;;6.97;;
2175;SDS011;1094;49.902;10.876;2022-08-18T13:26:28;8.07;;;7.40;;
2175;SDS011;1094;49.902;10.876;2022-08-18T13:28:54;7.80;;;7.10;;
2175;SDS011;1094;49.902;10.876;2022-08-18T13:31:21;7.30;;;6.60;;
2175;SDS011;1094;49.902;10.876;2022-08-18T13:33:47;7.83;;;7.27;;
2175;SDS011;1094;49.902;10.876;2022-08-18T13:36:14;7.67;;;6.90;;
2175;SDS011;1094;49.902;10.876;2022-08-18T13:38:40;7.83;;;7.23;;
2175;SDS011;1094;49.902;10.876;2022-08-18T13:41:07;7.57;;;6.80;;
2175;SDS011;1094;49.902;10.876;2022-08-18T13:43:34;9.57;;;7.17;;
2175;SDS011;1094;49.902;10.876;2022-08-18T13:46:02;7.60;;;6.90;;
2175;SDS011;1094;49.902;10.876;2022-08-18T13:48:28;8.63;;;7.77;;
2175;SDS011;1094;49.902;10.876;2022-08-18T13:50:55;8.27;;;7.17;;
2175;SDS011;1094;49.902;10.876;2022-08-18T13:53:22;8.27;;;7.60;;
2175;SDS011;1094;49.902;10.876;2022-08-18T13:55:48;11.30;;;7.10;;
2175;SDS011;1094;49.902;10.876;2022-08-18T13:58:14;7.80;;;7.00;;
2175;SDS011;1094;49.902;10.876;2022-08-18T14:00:41;7.63;;;7.03;;
2175;SDS011;1094;49.902;10.876;2022-08-18T14:03:07;7.63;;;6.97;;
2175;SDS011;1094;49.902;10.876;2022-08-18T14:05:33;8.60;;;7.80;;
2175;SDS011;1094;49.902;10.876;2022-08-18T14:08:00;8.83;;;8.00;;
2175;SDS011;1094;49.902;10.876;2022-08-18T14:10:26;8.40;;;7.23;;
2175;SDS011;1094;49.902;10.876;2022-08-18T14:12:53;7.67;;;7.00;;
2175;SDS011;1094;49.902;10.876;2022-08-18T14:15:20;8.17;;;7.40;;
2175;SDS011;1094;49.902;10.876;2022-08-18T14:17:46;8.43;;;7.53;;
2175;SDS011;1094;49.902;10.876;2022-08-18T14:20:13;8.73;;;7.93;;
2175;SDS011;1094;49.902;10.876;2022-08-18T14:22:58;8.10;;;7.37;;
2175;SDS011;1094;49.902;10.876;2022-08-18T14:25:43;8.03;;;7.10;;
2175;SDS011;1094;49.902;10.876;2022-08-18T14:28:28;8.77;;;7.97;;
2175;SDS011;1094;49.902;10.876;2022-08-18T14:30:55;7.33;;;6.73;;
2175;SDS011;1094;49.902;10.876;2022-08-18T14:33:22;9.27;;;7.50;;
2175;SDS011;1094;49.902;10.876;2022-08-18T14:35:48;8.17;;;7.47;;
2175;SDS011;1094;49.902;10.876;2022-08-18T14:38:14;7.43;;;6.73;;
2175;SDS011;1094;49.902;10.876;2022-08-18T14:40:41;7.37;;;6.63;;
2175;SDS011;1094;49.902;10.876;2022-08-18T14:43:08;7.90;;;7.17;;
2175;SDS011;1094;49.902;10.876;2022-08-18T14:45:34;7.83;;;7.10;;
2175;SDS011;1094;49.902;10.876;2022-08-18T14:48:01;7.90;;;7.20;;
2175;SDS011;1094;49.902;10.876;2022-08-18T14:50:27;8.10;;;7.40;;
2175;SDS011;1094;49.902;10.876;2022-08-18T14:52:53;7.30;;;6.70;;
2175;SDS011;1094;49.902;10.876;2022-08-18T14:55:19;8.43;;;6.80;;
2175;SDS011;1094;49.902;10.876;2022-08-18T14:57:45;7.80;;;7.10;;
2175;SDS011;1094;49.902;10.876;2022-08-18T15:00:13;8.17;;;7.37;;
2175;SDS011;1094;49.902;10.876;2022-08-18T15:02:40;6.90;;;6.23;;
2175;SDS011;1094;49.902;10.876;2022-08-18T15:05:07;8.40;;;7.50;;
2175;SDS011;1094;49.902;10.876;2022-08-18T15:07:34;7.00;;;6.40;;
2175;SDS011;1094;49.902;10.876;2022-08-18T15:10:07;8.13;;;7.40;;
2175;SDS011;1094;49.902;10.876;2022-08-18T15:12:33;7.73;;;7.13;;
2175;SDS011;1094;49.902;10.876;2022-08-18T15:14:59;9.30;;;6.90;;
2175;SDS011;1094;49.902;10.876;2022-08-18T15:17:25;9.17;;;7.33;;
2175;SDS011;1094;49.902;10.876;2022-08-18T15:19:52;7.33;;;6.63;;
2175;SDS011;1094;49.902;10.876;2022-08-18T15:22:18;7.20;;;6.60;;
2175;SDS011;1094;49.902;10.876;2022-08-18T15:25:03;7.10;;;6.40;;
2175;SDS011;1094;49.902;10.876;2022-08-18T15:27:48;14.57;;;6.73;;
2175;SDS011;1094;49.902;10.876;2022-08-18T15:30:14;7.17;;;6.47;;
2175;SDS011;1094;49.902;10.876;2022-08-18T15:32:43;7.63;;;6.93;;
2175;SDS011;1094;49.902;10.876;2022-08-18T15:35:10;7.40;;;6.70;;
2175;SDS011;1094;49.902;10.876;2022-08-18T15:37:36;8.00;;;6.83;;
2175;SDS011;1094;49.902;10.876;2022-08-18T15:40:10;7.10;;;6.50;;
2175;SDS011;1094;49.902;10.876;2022-08-18T15:42:39;7.97;;;7.17;;
2175;SDS011;1094;49.902;10.876;2022-08-18T15:45:07;9.60;;;7.20;;
2175;SDS011;1094;49.902;10.876;2022-08-18T15:47:33;9.47;;;7.20;;
2175;SDS011;1094;49.902;10.876;2022-08-18T15:49:59;11.80;;;6.73;;
2175;SDS011;1094;49.902;10.876;2022-08-18T15:52:25;8.50;;;7.70;;
2175;SDS011;1094;49.902;10.876;2022-08-18T15:54:51;9.93;;;7.07;;
2175;SDS011;1094;49.902;10.876;2022-08-18T15:57:18;7.63;;;6.90;;
2175;SDS011;1094;49.902;10.876;2022-08-18T15:59:44;7.47;;;6.80;;
2175;SDS011;1094;49.902;10.876;2022-08-18T16:02:10;8.03;;;7.23;;
2175;SDS011;1094;49.902;10.876;2022-08-18T16:04:37;8.53;;;7.53;;
2175;SDS011;1094;49.902;10.876;2022-08-18T16:07:04;9.70;;;7.77;;
2175;SDS011;1094;49.902;10.876;2022-08-18T16:09:30;8.80;;;8.10;;
2175;SDS011;1094;49.902;10.876;2022-08-18T16:11:56;8.90;;;8.00;;
2175;SDS011;1094;49.902;10.876;2022-08-18T16:14:23;8.43;;;7.63;;
2175;SDS011;1094;49.902;10.876;2022-08-18T16:16:49;8.17;;;7.47;;
2175;SDS011;1094;49.902;10.876;2022-08-18T16:19:14;8.70;;;7.63;;
2175;SDS011;1094;49.902;10.876;2022-08-18T16:21:40;10.00;;;7.60;;
2175;SDS011;1094;49.902;10.876;2022-08-18T16:24:06;8.50;;;7.50;;
2175;SDS011;1094;49.902;10.876;2022-08-18T16:26:33;8.10;;;7.30;;
2175;SDS011;1094;49.902;10.876;2022-08-18T16:28:59;7.80;;;7.03;;
2175;SDS011;1094;49.902;10.876;2022-08-18T16:31:25;8.83;;;8.03;;
2175;SDS011;1094;49.902;10.876;2022-08-18T16:33:52;8.30;;;7.60;;